sensor_id;sensor_type;location;lat;lon;timestamp;pressure;altitude;pressure_sealevel;temperature;humidity
32298;BME280;18782;48.984;8.548;2022-12-07T00:02:21;100159.34;;;4.71;96.11
32298;BME280;18782;48.984;8.548;2022-12-07T00:04:49;100158.38;;;4.69;96.07
32298;BME280;18782;48.984;8.548;2022-12-07T00:07:17;100154.00;;;4.66;96.25
32298;BME280;18782;48.984;8.548;2022-12-07T00:09:51;100145.47;;;4.66;96.77
32298;BME280;18782;48.984;8.548;2022-12-07T00:12:19;100147.06;;;4.64;96.71
32298;BME280;18782;48.984;8.548;2022-12-07T00:14:46;100144.38;;;4.61;96.93
32298;BME280;18782;48.984;8.548;2022-12-07T00:17:14;100148.66;;;4.62;96.50
32298;BME280;18782;48.984;8.548;2022-12-07T00:19:43;100135.91;;;4.62;96.88
32298;BME280;18782;48.984;8.548;2022-12-07T00:22:10;100147.72;;;4.60;97.23
32298;BME280;18782;48.984;8.548;2022-12-07T00:24:38;100150.25;;;4.60;97.29
32298;BME280;18782;48.984;8.548;2022-12-07T00:27:05;100145.00;;;4.57;96.72
32298;BME280;18782;48.984;8.548;2022-12-07T00:29:33;100146.75;;;4.58;97.26
32298;BME280;18782;48.984;8.548;2022-12-07T00:32:02;100145.81;;;4.56;97.19
32298;BME280;18782;48.984;8.548;2022-12-07T00:34:30;100138.78;;;4.52;96.94
32298;BME280;18782;48.984;8.548;2022-12-07T00:36:59;100155.59;;;4.48;97.06
32298;BME280;18782;48.984;8.548;2022-12-07T00:39:26;100144.50;;;4.48;97.76
32298;BME280;18782;48.984;8.548;2022-12-07T00:41:54;100148.75;;;4.47;97.48
32298;BME280;18782;48.984;8.548;2022-12-07T00:44:22;100150.25;;;4.43;97.18
32298;BME280;18782;48.984;8.548;2022-12-07T00:46:49;100143.34;;;4.41;97.08
32298;BME280;18782;48.984;8.548;2022-12-07T00:49:17;100138.78;;;4.35;97.15
32298;BME280;18782;48.984;8.548;2022-12-07T00:51:44;100152.34;;;4.34;97.95
32298;BME280;18782;48.984;8.548;2022-12-07T00:54:16;100145.63;;;4.36;97.92
32298;BME280;18782;48.984;8.548;2022-12-07T00:56:43;100143.72;;;4.32;97.86
32298;BME280;18782;48.984;8.548;2022-12-07T00:59:12;100150.50;;;4.32;97.86
32298;BME280;18782;48.984;8.548;2022-12-07T01:01:41;100136.81;;;4.30;98.04
32298;BME280;18782;48.984;8.548;2022-12-07T01:04:09;100143.56;;;4.29;98.12
32298;BME280;18782;48.984;8.548;2022-12-07T01:06:36;100148.69;;;4.29;98.27
32298;BME280;18782;48.984;8.548;2022-12-07T01:09:04;100140.94;;;4.28;99.17
32298;BME280;18782;48.984;8.548;2022-12-07T01:11:33;100143.56;;;4.29;99.00
32298;BME280;18782;48.984;8.548;2022-12-07T01:14:01;100147.81;;;4.29;98.32
32298;BME280;18782;48.984;8.548;2022-12-07T01:16:31;100143.41;;;4.26;98.74
32298;BME280;18782;48.984;8.548;2022-12-07T01:18:59;100140.94;;;4.28;97.97
32298;BME280;18782;48.984;8.548;2022-12-07T01:21:29;100145.00;;;4.24;97.58
32298;BME280;18782;48.984;8.548;2022-12-07T01:23:59;100144.03;;;4.22;98.42
32298;BME280;18782;48.984;8.548;2022-12-07T01:26:26;100144.84;;;4.21;98.89
32298;BME280;18782;48.984;8.548;2022-12-07T01:28:58;100144.84;;;4.21;98.48
32298;BME280;18782;48.984;8.548;2022-12-07T01:31:28;100144.84;;;4.21;98.74
32298;BME280;18782;48.984;8.548;2022-12-07T01:33:57;100145.94;;;4.10;98.80
32298;BME280;18782;48.984;8.548;2022-12-07T01:36:27;100150.84;;;4.07;98.97
32298;BME280;18782;48.984;8.548;2022-12-07T01:38:56;100162.81;;;4.08;99.31
32298;BME280;18782;48.984;8.548;2022-12-07T01:41:26;100156.75;;;4.06;98.53
32298;BME280;18782;48.984;8.548;2022-12-07T01:44:19;100150.78;;;4.05;98.21
32298;BME280;18782;48.984;8.548;2022-12-07T01:46:49;100148.78;;;4.00;99.35
32298;BME280;18782;48.984;8.548;2022-12-07T01:49:29;100150.53;;;4.01;99.75
32298;BME280;18782;48.984;8.548;2022-12-07T01:52:04;100150.38;;;3.98;100.00
32298;BME280;18782;48.984;8.548;2022-12-07T01:54:35;100146.88;;;3.96;99.80
32298;BME280;18782;48.984;8.548;2022-12-07T01:57:06;100143.53;;;3.97;100.00
32298;BME280;18782;48.984;8.548;2022-12-07T01:59:37;100142.56;;;3.95;100.00
32298;BME280;18782;48.984;8.548;2022-12-07T02:02:10;100145.13;;;3.95;100.00
32298;BME280;18782;48.984;8.548;2022-12-07T02:04:40;100148.47;;;3.93;99.79
32298;BME280;18782;48.984;8.548;2022-12-07T02:07:08;100149.16;;;3.91;99.98
32298;BME280;18782;48.984;8.548;2022-12-07T02:09:35;100140.41;;;3.86;99.99
32298;BME280;18782;48.984;8.548;2022-12-07T02:12:04;100134.34;;;3.84;99.98
32298;BME280;18782;48.984;8.548;2022-12-07T02:14:32;100131.56;;;3.79;99.22
32298;BME280;18782;48.984;8.548;2022-12-07T02:17:08;100126.53;;;3.81;99.56
32298;BME280;18782;48.984;8.548;2022-12-07T02:19:58;100122.34;;;3.81;99.56
32298;BME280;18782;48.984;8.548;2022-12-07T02:22:48;100120.44;;;3.77;99.63
32298;BME280;18782;48.984;8.548;2022-12-07T02:25:32;100123.25;;;3.67;100.00
32298;BME280;18782;48.984;8.548;2022-12-07T02:28:09;100113.09;;;3.67;100.00
32298;BME280;18782;48.984;8.548;2022-12-07T02:30:45;100122.94;;;3.61;100.00
32298;BME280;18782;48.984;8.548;2022-12-07T02:33:17;100122.94;;;3.61;100.00
32298;BME280;18782;48.984;8.548;2022-12-07T02:35:52;100129.78;;;3.62;100.00
32298;BME280;18782;48.984;8.548;2022-12-07T02:38:26;100126.44;;;3.63;100.00
32298;BME280;18782;48.984;8.548;2022-12-07T02:41:04;100131.84;;;3.69;100.00
32298;BME280;18782;48.984;8.548;2022-12-07T02:43:36;100135.38;;;3.71;100.00
32298;BME280;18782;48.984;8.548;2022-12-07T02:46:10;100139.91;;;3.77;100.00
32298;BME280;18782;48.984;8.548;2022-12-07T02:48:41;100132.28;;;3.77;100.00
32298;BME280;18782;48.984;8.548;2022-12-07T02:51:09;100126.53;;;3.81;100.00
32298;BME280;18782;48.984;8.548;2022-12-07T02:53:38;100127.44;;;3.81;100.00
32298;BME280;18782;48.984;8.548;2022-12-07T02:56:10;100123.22;;;3.82;100.00
32298;BME280;18782;48.984;8.548;2022-12-07T02:58:50;100122.50;;;3.84;100.00
32298;BME280;18782;48.984;8.548;2022-12-07T03:01:28;100122.69;;;3.87;100.00
32298;BME280;18782;48.984;8.548;2022-12-07T03:04:05;100121.81;;;3.87;100.00
32298;BME280;18782;48.984;8.548;2022-12-07T03:06:42;100127.75;;;3.87;100.00
32298;BME280;18782;48.984;8.548;2022-12-07T03:09:14;100121.69;;;3.85;100.00
32298;BME280;18782;48.984;8.548;2022-12-07T03:11:49;100120.75;;;3.83;100.00
32298;BME280;18782;48.984;8.548;2022-12-07T03:14:21;100119.81;;;3.81;100.00
32298;BME280;18782;48.984;8.548;2022-12-07T03:16:57;100115.66;;;3.83;100.00
32298;BME280;18782;48.984;8.548;2022-12-07T03:19:30;100108.81;;;3.82;100.00
32298;BME280;18782;48.984;8.548;2022-12-07T03:22:02;100091.00;;;3.82;100.00
32298;BME280;18782;48.984;8.548;2022-12-07T03:24:35;100095.91;;;3.79;100.00
32298;BME280;18782;48.984;8.548;2022-12-07T03:27:04;100089.56;;;3.71;99.59
32298;BME280;18782;48.984;8.548;2022-12-07T03:29:35;100090.41;;;3.72;100.00
32298;BME280;18782;48.984;8.548;2022-12-07T03:32:10;100086.19;;;3.72;100.00
32298;BME280;18782;48.984;8.548;2022-12-07T03:34:45;100082.84;;;3.73;100.00
32298;BME280;18782;48.984;8.548;2022-12-07T03:37:18;100086.91;;;3.70;99.64
32298;BME280;18782;48.984;8.548;2022-12-07T03:39:58;100088.50;;;3.67;100.00
32298;BME280;18782;48.984;8.548;2022-12-07T03:42:30;100092.88;;;3.70;99.56
32298;BME280;18782;48.984;8.548;2022-12-07T03:45:00;100094.72;;;3.73;100.00
32298;BME280;18782;48.984;8.548;2022-12-07T03:47:33;100092.09;;;3.71;99.58
32298;BME280;18782;48.984;8.548;2022-12-07T03:50:05;100101.31;;;3.69;100.00
32298;BME280;18782;48.984;8.548;2022-12-07T03:52:39;100106.38;;;3.69;100.00
32298;BME280;18782;48.984;8.548;2022-12-07T03:55:10;100108.94;;;3.69;100.00
32298;BME280;18782;48.984;8.548;2022-12-07T03:57:43;100103.84;;;3.69;100.00
32298;BME280;18782;48.984;8.548;2022-12-07T04:00:13;100098.75;;;3.69;100.00
32298;BME280;18782;48.984;8.548;2022-12-07T04:02:42;100106.47;;;3.71;100.00
32298;BME280;18782;48.984;8.548;2022-12-07T04:05:11;100100.59;;;3.72;100.00
32298;BME280;18782;48.984;8.548;2022-12-07T04:07:38;100104.28;;;3.77;100.00
32298;BME280;18782;48.984;8.548;2022-12-07T04:10:08;100106.91;;;3.78;99.42
32298;BME280;18782;48.984;8.548;2022-12-07T04:12:36;100102.59;;;3.77;100.00
32298;BME280;18782;48.984;8.548;2022-12-07T04:15:05;100094.09;;;3.77;99.39
32298;BME280;18782;48.984;8.548;2022-12-07T04:17:32;100092.31;;;3.76;99.88
32298;BME280;18782;48.984;8.548;2022-12-07T04:20:02;100096.53;;;3.75;99.75
32298;BME280;18782;48.984;8.548;2022-12-07T04:22:31;100099.06;;;3.75;99.49
32298;BME280;18782;48.984;8.548;2022-12-07T04:24:58;100094.78;;;3.74;99.37
32298;BME280;18782;48.984;8.548;2022-12-07T04:27:26;100100.75;;;3.75;99.61
32298;BME280;18782;48.984;8.548;2022-12-07T04:29:54;100093.03;;;3.73;99.97
32298;BME280;18782;48.984;8.548;2022-12-07T04:32:22;100099.88;;;3.74;99.94
32298;BME280;18782;48.984;8.548;2022-12-07T04:34:50;100095.59;;;3.73;99.80
32298;BME280;18782;48.984;8.548;2022-12-07T04:37:22;100087.94;;;3.73;99.65
32298;BME280;18782;48.984;8.548;2022-12-07T04:40:06;100088.75;;;3.72;100.00
32298;BME280;18782;48.984;8.548;2022-12-07T04:42:34;100094.53;;;3.70;99.99
32298;BME280;18782;48.984;8.548;2022-12-07T04:45:01;100086.03;;;3.69;99.87
32298;BME280;18782;48.984;8.548;2022-12-07T04:47:29;100092.00;;;3.70;100.00
32298;BME280;18782;48.984;8.548;2022-12-07T04:49:56;100092.88;;;3.70;100.00
32298;BME280;18782;48.984;8.548;2022-12-07T04:52:26;100089.44;;;3.70;100.00
32298;BME280;18782;48.984;8.548;2022-12-07T04:54:53;100092.09;;;3.71;100.00
32298;BME280;18782;48.984;8.548;2022-12-07T04:57:21;100089.56;;;3.71;99.25
32298;BME280;18782;48.984;8.548;2022-12-07T04:59:48;100089.38;;;3.68;98.77
32298;BME280;18782;48.984;8.548;2022-12-07T05:02:16;100087.00;;;3.71;99.18
32298;BME280;18782;48.984;8.548;2022-12-07T05:04:44;100093.72;;;3.71;99.00
32298;BME280;18782;48.984;8.548;2022-12-07T05:07:11;100098.94;;;3.72;98.77
32298;BME280;18782;48.984;8.548;2022-12-07T05:09:40;100091.28;;;3.72;98.23
32298;BME280;18782;48.984;8.548;2022-12-07T05:12:08;100093.72;;;3.71;98.81
32298;BME280;18782;48.984;8.548;2022-12-07T05:14:35;100091.28;;;3.72;98.08
32298;BME280;18782;48.984;8.548;2022-12-07T05:17:03;100090.97;;;3.66;96.45
32298;BME280;18782;48.984;8.548;2022-12-07T05:19:31;100092.09;;;3.71;96.25
32298;BME280;18782;48.984;8.548;2022-12-07T05:21:58;100092.31;;;3.76;96.93
32298;BME280;18782;48.984;8.548;2022-12-07T05:24:26;100089.63;;;3.73;96.50
32298;BME280;18782;48.984;8.548;2022-12-07T05:26:55;100090.56;;;3.75;96.88
32298;BME280;18782;48.984;8.548;2022-12-07T05:29:22;100095.50;;;3.72;96.37
32298;BME280;18782;48.984;8.548;2022-12-07T05:31:50;100085.34;;;3.72;96.46
32298;BME280;18782;48.984;8.548;2022-12-07T05:34:18;100087.94;;;3.73;95.85
32298;BME280;18782;48.984;8.548;2022-12-07T05:36:45;100082.69;;;3.70;96.11
32298;BME280;18782;48.984;8.548;2022-12-07T05:39:13;100096.06;;;3.66;94.02
32298;BME280;18782;48.984;8.548;2022-12-07T05:41:41;100088.56;;;3.69;93.84
32298;BME280;18782;48.984;8.548;2022-12-07T05:44:27;100093.72;;;3.71;94.39
32298;BME280;18782;48.984;8.548;2022-12-07T05:46:55;100089.56;;;3.71;93.80
32298;BME280;18782;48.984;8.548;2022-12-07T05:49:22;100085.41;;;3.73;94.85
32298;BME280;18782;48.984;8.548;2022-12-07T05:51:50;100081.13;;;3.72;94.82
32298;BME280;18782;48.984;8.548;2022-12-07T05:54:17;100088.81;;;3.74;94.57
32298;BME280;18782;48.984;8.548;2022-12-07T05:56:45;100095.91;;;3.79;94.93
32298;BME280;18782;48.984;8.548;2022-12-07T05:59:12;100087.66;;;3.83;94.67
32298;BME280;18782;48.984;8.548;2022-12-07T06:01:50;100090.19;;;3.83;93.98
32298;BME280;18782;48.984;8.548;2022-12-07T06:04:18;100092.66;;;3.82;95.18
32298;BME280;18782;48.984;8.548;2022-12-07T06:06:46;100087.72;;;3.85;93.10
32298;BME280;18782;48.984;8.548;2022-12-07T06:09:16;100085.19;;;3.85;92.34
32298;BME280;18782;48.984;8.548;2022-12-07T06:11:44;100085.28;;;3.86;92.90
32298;BME280;18782;48.984;8.548;2022-12-07T06:14:29;100090.50;;;3.89;93.39
32298;BME280;18782;48.984;8.548;2022-12-07T06:16:59;100089.56;;;3.87;91.75
32298;BME280;18782;48.984;8.548;2022-12-07T06:19:26;100085.97;;;3.84;90.66
32298;BME280;18782;48.984;8.548;2022-12-07T06:21:54;100083.50;;;3.85;90.95
32298;BME280;18782;48.984;8.548;2022-12-07T06:24:22;100086.22;;;3.88;91.26
32298;BME280;18782;48.984;8.548;2022-12-07T06:26:50;100089.09;;;3.95;92.61
32298;BME280;18782;48.984;8.548;2022-12-07T06:29:18;100089.97;;;3.95;92.57
32298;BME280;18782;48.984;8.548;2022-12-07T06:31:46;100090.22;;;4.00;93.34
32298;BME280;18782;48.984;8.548;2022-12-07T06:34:16;100091.81;;;3.98;92.77
32298;BME280;18782;48.984;8.548;2022-12-07T06:36:45;100095.13;;;4.62;100.00
32298;BME280;18782;48.984;8.548;2022-12-07T06:39:17;100093.84;;;5.22;99.92
32298;BME280;18782;48.984;8.548;2022-12-07T06:41:45;100096.44;;;5.41;94.67
32298;BME280;18782;48.984;8.548;2022-12-07T06:44:13;100088.00;;;5.07;87.48
32298;BME280;18782;48.984;8.548;2022-12-07T06:46:41;100094.75;;;4.88;84.48
32298;BME280;18782;48.984;8.548;2022-12-07T06:49:09;100095.59;;;4.71;84.09
32298;BME280;18782;48.984;8.548;2022-12-07T06:51:38;100096.91;;;4.30;82.38
32298;BME280;18782;48.984;8.548;2022-12-07T06:54:07;100093.06;;;4.22;82.50
32298;BME280;18782;48.984;8.548;2022-12-07T06:56:35;100086.09;;;4.18;83.16
32298;BME280;18782;48.984;8.548;2022-12-07T06:59:05;100086.84;;;4.17;84.81
32298;BME280;18782;48.984;8.548;2022-12-07T07:01:34;100087.59;;;4.14;84.59
32298;BME280;18782;48.984;8.548;2022-12-07T07:04:02;100090.78;;;4.10;84.42
32298;BME280;18782;48.984;8.548;2022-12-07T07:06:30;100099.38;;;4.12;84.32
32298;BME280;18782;48.984;8.548;2022-12-07T07:08:59;100088.47;;;4.15;85.30
32298;BME280;18782;48.984;8.548;2022-12-07T07:11:26;100097.78;;;4.14;84.33
32298;BME280;18782;48.984;8.548;2022-12-07T07:13:54;100091.19;;;4.18;85.54
32298;BME280;18782;48.984;8.548;2022-12-07T07:16:23;100092.69;;;4.14;84.55
32298;BME280;18782;48.984;8.548;2022-12-07T07:18:51;100098.47;;;4.12;85.67
32298;BME280;18782;48.984;8.548;2022-12-07T07:21:19;100097.38;;;4.07;83.34
32298;BME280;18782;48.984;8.548;2022-12-07T07:23:46;100092.44;;;4.10;82.35
32298;BME280;18782;48.984;8.548;2022-12-07T07:26:15;100096.75;;;4.11;81.90
32298;BME280;18782;48.984;8.548;2022-12-07T07:28:48;100105.81;;;4.06;81.87
32298;BME280;18782;48.984;8.548;2022-12-07T07:31:16;100099.59;;;4.01;81.02
32298;BME280;18782;48.984;8.548;2022-12-07T07:33:44;100105.34;;;4.13;83.29
32298;BME280;18782;48.984;8.548;2022-12-07T07:36:12;100106.22;;;4.13;83.05
32298;BME280;18782;48.984;8.548;2022-12-07T07:38:40;100098.81;;;4.18;82.29
32298;BME280;18782;48.984;8.548;2022-12-07T07:41:07;100107.03;;;4.29;83.27
32298;BME280;18782;48.984;8.548;2022-12-07T07:43:36;100105.19;;;4.26;80.60
32298;BME280;18782;48.984;8.548;2022-12-07T07:46:04;100107.91;;;4.29;80.09
32298;BME280;18782;48.984;8.548;2022-12-07T07:48:31;100111.25;;;4.44;82.22
32298;BME280;18782;48.984;8.548;2022-12-07T07:50:59;100113.38;;;4.53;81.44
32298;BME280;18782;48.984;8.548;2022-12-07T07:53:27;100112.34;;;4.66;80.91
32298;BME280;18782;48.984;8.548;2022-12-07T07:55:54;100120.13;;;4.53;78.05
32298;BME280;18782;48.984;8.548;2022-12-07T07:58:22;100116.72;;;4.52;78.58
32298;BME280;18782;48.984;8.548;2022-12-07T08:00:51;100120.63;;;4.45;77.39
32298;BME280;18782;48.984;8.548;2022-12-07T08:03:19;100116.34;;;4.44;78.43
32298;BME280;18782;48.984;8.548;2022-12-07T08:05:47;100122.44;;;4.48;78.21
32298;BME280;18782;48.984;8.548;2022-12-07T08:08:15;100126.34;;;4.58;77.85
32298;BME280;18782;48.984;8.548;2022-12-07T08:10:42;100119.69;;;4.60;78.79
32298;BME280;18782;48.984;8.548;2022-12-07T08:13:10;100129.97;;;4.45;76.20
32298;BME280;18782;48.984;8.548;2022-12-07T08:15:38;100136.31;;;4.37;77.71
32298;BME280;18782;48.984;8.548;2022-12-07T08:18:08;100128.13;;;4.26;77.68
32298;BME280;18782;48.984;8.548;2022-12-07T08:20:36;100130.22;;;4.33;79.24
32298;BME280;18782;48.984;8.548;2022-12-07T08:23:05;100137.38;;;4.40;81.06
32298;BME280;18782;48.984;8.548;2022-12-07T08:25:33;100129.72;;;4.40;80.19
32298;BME280;18782;48.984;8.548;2022-12-07T08:28:01;100130.97;;;4.32;79.41
32298;BME280;18782;48.984;8.548;2022-12-07T08:30:29;100129.31;;;4.33;79.76
32298;BME280;18782;48.984;8.548;2022-12-07T08:32:57;100131.94;;;4.34;80.56
32298;BME280;18782;48.984;8.548;2022-12-07T08:35:26;100136.72;;;4.28;79.38
32298;BME280;18782;48.984;8.548;2022-12-07T08:37:54;100135.63;;;4.39;80.44
32298;BME280;18782;48.984;8.548;2022-12-07T08:40:23;100139.59;;;4.51;81.88
32298;BME280;18782;48.984;8.548;2022-12-07T08:42:51;100137.34;;;4.57;81.24
32298;BME280;18782;48.984;8.548;2022-12-07T08:45:20;100137.34;;;4.57;80.07
32298;BME280;18782;48.984;8.548;2022-12-07T08:47:55;100141.34;;;4.52;80.44
32298;BME280;18782;48.984;8.548;2022-12-07T08:50:26;100133.50;;;4.49;80.47
32298;BME280;18782;48.984;8.548;2022-12-07T08:52:56;100135.38;;;4.51;80.06
32298;BME280;18782;48.984;8.548;2022-12-07T08:55:24;100139.41;;;4.48;80.37
32298;BME280;18782;48.984;8.548;2022-12-07T08:57:53;100130.63;;;4.59;80.77
32298;BME280;18782;48.984;8.548;2022-12-07T09:00:21;100141.81;;;4.61;80.89
32298;BME280;18782;48.984;8.548;2022-12-07T09:02:49;100144.38;;;4.61;81.13
32298;BME280;18782;48.984;8.548;2022-12-07T09:05:17;100145.38;;;4.64;81.72
32298;BME280;18782;48.984;8.548;2022-12-07T09:07:48;100141.31;;;4.68;81.95
32298;BME280;18782;48.984;8.548;2022-12-07T09:10:17;100139.81;;;4.71;83.13
32298;BME280;18782;48.984;8.548;2022-12-07T09:12:45;100146.09;;;4.62;82.50
32298;BME280;18782;48.984;8.548;2022-12-07T09:15:12;100144.50;;;4.64;82.60
32298;BME280;18782;48.984;8.548;2022-12-07T09:17:40;100146.28;;;4.65;84.81
32298;BME280;18782;48.984;8.548;2022-12-07T09:20:08;100144.03;;;4.71;83.04
32298;BME280;18782;48.984;8.548;2022-12-07T09:22:36;100145.31;;;4.63;84.34
32298;BME280;18782;48.984;8.548;2022-12-07T09:25:06;100146.91;;;4.61;85.08
32298;BME280;18782;48.984;8.548;2022-12-07T09:27:33;100141.81;;;4.61;85.04
32298;BME280;18782;48.984;8.548;2022-12-07T09:30:02;100146.97;;;4.62;85.13
32298;BME280;18782;48.984;8.548;2022-12-07T09:32:30;100140.47;;;4.51;84.77
32298;BME280;18782;48.984;8.548;2022-12-07T09:34:58;100135.84;;;4.60;84.53
32298;BME280;18782;48.984;8.548;2022-12-07T09:37:25;100137.81;;;4.66;85.54
32298;BME280;18782;48.984;8.548;2022-12-07T09:39:53;100146.44;;;4.52;85.44
32298;BME280;18782;48.984;8.548;2022-12-07T09:42:28;100143.66;;;4.47;85.69
32298;BME280;18782;48.984;8.548;2022-12-07T09:44:58;100154.88;;;4.51;86.23
32298;BME280;18782;48.984;8.548;2022-12-07T09:47:26;100150.72;;;4.69;88.45
32298;BME280;18782;48.984;8.548;2022-12-07T09:50:00;100142.28;;;4.70;86.56
32298;BME280;18782;48.984;8.548;2022-12-07T09:52:30;100139.94;;;4.75;85.02
32298;BME280;18782;48.984;8.548;2022-12-07T09:55:09;100137.41;;;4.91;85.80
32298;BME280;18782;48.984;8.548;2022-12-07T09:57:39;100139.91;;;5.07;87.44
32298;BME280;18782;48.984;8.548;2022-12-07T10:00:13;100138.34;;;5.11;86.33
32298;BME280;18782;48.984;8.548;2022-12-07T10:02:43;100135.03;;;5.12;82.06
32298;BME280;18782;48.984;8.548;2022-12-07T10:05:14;100134.06;;;5.10;83.16
32298;BME280;18782;48.984;8.548;2022-12-07T10:07:49;100132.25;;;5.07;82.68
32298;BME280;18782;48.984;8.548;2022-12-07T10:10:20;100140.00;;;4.92;79.31
32298;BME280;18782;48.984;8.548;2022-12-07T10:12:58;100128.88;;;4.74;79.46
32298;BME280;18782;48.984;8.548;2022-12-07T10:15:42;100126.97;;;4.86;80.95
32298;BME280;18782;48.984;8.548;2022-12-07T10:21:12;100124.19;;;5.00;79.72
32298;BME280;18782;48.984;8.548;2022-12-07T10:23:41;100122.09;;;5.09;80.02
32298;BME280;18782;48.984;8.548;2022-12-07T10:26:20;100124.38;;;5.03;79.70
32298;BME280;18782;48.984;8.548;2022-12-07T10:28:50;100125.31;;;5.05;78.37
32298;BME280;18782;48.984;8.548;2022-12-07T10:31:20;100110.06;;;5.06;79.21
32298;BME280;18782;48.984;8.548;2022-12-07T10:33:50;100113.34;;;5.21;79.32
32298;BME280;18782;48.984;8.548;2022-12-07T10:36:23;100110.09;;;5.24;78.24
32298;BME280;18782;48.984;8.548;2022-12-07T10:38:53;100114.25;;;5.22;76.35
32298;BME280;18782;48.984;8.548;2022-12-07T10:41:25;100104.47;;;5.13;77.87
32298;BME280;18782;48.984;8.548;2022-12-07T10:43:56;100103.25;;;5.23;77.66
32298;BME280;18782;48.984;8.548;2022-12-07T10:46:53;100098.78;;;5.19;77.96
32298;BME280;18782;48.984;8.548;2022-12-07T10:49:37;100100.00;;;5.27;77.68
32298;BME280;18782;48.984;8.548;2022-12-07T10:52:17;100099.66;;;5.19;78.15
32298;BME280;18782;48.984;8.548;2022-12-07T10:54:54;100092.53;;;5.12;78.49
32298;BME280;18782;48.984;8.548;2022-12-07T10:57:38;100098.03;;;5.04;77.93
32298;BME280;18782;48.984;8.548;2022-12-07T11:00:15;100093.41;;;5.13;78.07
32298;BME280;18782;48.984;8.548;2022-12-07T11:05:40;100080.50;;;5.28;78.46
32298;BME280;18782;48.984;8.548;2022-12-07T11:08:19;100078.22;;;5.16;77.45
32298;BME280;18782;48.984;8.548;2022-12-07T11:10:54;100072.97;;;5.13;76.98
32298;BME280;18782;48.984;8.548;2022-12-07T11:13:27;100087.94;;;4.71;78.41
32298;BME280;18782;48.984;8.548;2022-12-07T11:16:05;100066.22;;;4.79;79.13
32298;BME280;18782;48.984;8.548;2022-12-07T11:18:45;100072.38;;;4.83;79.21
32298;BME280;18782;48.984;8.548;2022-12-07T11:21:21;100065.22;;;4.93;78.22
32298;BME280;18782;48.984;8.548;2022-12-07T11:23:56;100059.97;;;4.90;79.35
32298;BME280;18782;48.984;8.548;2022-12-07T11:26:39;100065.69;;;5.03;78.54
32298;BME280;18782;48.984;8.548;2022-12-07T11:29:21;100059.84;;;4.87;79.27
32298;BME280;18782;48.984;8.548;2022-12-07T11:32:04;100055.94;;;5.12;78.73
32298;BME280;18782;48.984;8.548;2022-12-07T11:34:45;100054.84;;;5.07;78.97
32298;BME280;18782;48.984;8.548;2022-12-07T11:37:19;100058.41;;;5.28;77.92
32298;BME280;18782;48.984;8.548;2022-12-07T11:39:50;100057.44;;;5.26;78.60
32298;BME280;18782;48.984;8.548;2022-12-07T11:42:21;100076.47;;;5.15;78.30
32298;BME280;18782;48.984;8.548;2022-12-07T11:44:53;100058.31;;;5.09;78.42
32298;BME280;18782;48.984;8.548;2022-12-07T11:47:28;100051.66;;;4.94;79.98
32298;BME280;18782;48.984;8.548;2022-12-07T11:50:05;100055.78;;;5.09;78.93
32298;BME280;18782;48.984;8.548;2022-12-07T11:52:44;100043.22;;;5.31;78.19
32298;BME280;18782;48.984;8.548;2022-12-07T11:55:19;100040.00;;;5.35;78.88
32298;BME280;18782;48.984;8.548;2022-12-07T11:57:53;100040.00;;;5.35;78.69
32298;BME280;18782;48.984;8.548;2022-12-07T12:00:23;100040.59;;;5.30;78.18
32298;BME280;18782;48.984;8.548;2022-12-07T12:02:57;100034.63;;;5.29;79.23
32298;BME280;18782;48.984;8.548;2022-12-07T12:05:27;100037.09;;;5.28;78.85
32298;BME280;18782;48.984;8.548;2022-12-07T12:08:06;100026.88;;;5.45;79.62
32298;BME280;18782;48.984;8.548;2022-12-07T12:11:05;100022.31;;;5.58;78.51
32298;BME280;18782;48.984;8.548;2022-12-07T12:14:03;100026.47;;;5.56;79.27
32298;BME280;18782;48.984;8.548;2022-12-07T12:17:17;100025.94;;;5.63;79.26
32298;BME280;18782;48.984;8.548;2022-12-07T12:20:01;100025.16;;;5.83;77.81
32298;BME280;18782;48.984;8.548;2022-12-07T12:22:34;100020.59;;;5.76;77.98
32298;BME280;18782;48.984;8.548;2022-12-07T12:25:05;100012.94;;;5.39;79.23
32298;BME280;18782;48.984;8.548;2022-12-07T12:27:36;100019.22;;;5.45;79.74
32298;BME280;18782;48.984;8.548;2022-12-07T12:30:07;100003.66;;;5.59;79.19
32298;BME280;18782;48.984;8.548;2022-12-07T12:32:51;100010.88;;;5.69;80.45
32298;BME280;18782;48.984;8.548;2022-12-07T12:35:31;100006.16;;;5.76;80.02
32298;BME280;18782;48.984;8.548;2022-12-07T12:41:04;100006.97;;;5.58;80.09
32298;BME280;18782;48.984;8.548;2022-12-07T12:43:50;100008.88;;;5.62;80.73
32298;BME280;18782;48.984;8.548;2022-12-07T12:46:46;100011.81;;;5.52;81.79
32298;BME280;18782;48.984;8.548;2022-12-07T12:49:35;100011.50;;;5.26;81.57
32298;BME280;18782;48.984;8.548;2022-12-07T12:55:15;100006.28;;;5.42;82.06
32298;BME280;18782;48.984;8.548;2022-12-07T12:57:52;100000.31;;;5.42;81.63
32298;BME280;18782;48.984;8.548;2022-12-07T13:00:40;99998.00;;;5.29;81.28
32298;BME280;18782;48.984;8.548;2022-12-07T13:03:21;100010.56;;;5.24;81.90
32298;BME280;18782;48.984;8.548;2022-12-07T13:06:19;100001.44;;;5.29;82.40
32298;BME280;18782;48.984;8.548;2022-12-07T13:08:46;99995.22;;;5.42;82.02
32298;BME280;18782;48.984;8.548;2022-12-07T13:11:24;99991.16;;;5.28;81.11
32298;BME280;18782;48.984;8.548;2022-12-07T13:17:01;99986.56;;;5.38;82.10
32298;BME280;18782;48.984;8.548;2022-12-07T13:19:59;99979.44;;;5.50;80.76
32298;BME280;18782;48.984;8.548;2022-12-07T13:22:52;99969.50;;;5.57;79.91
32298;BME280;18782;48.984;8.548;2022-12-07T13:25:26;99967.91;;;5.59;80.19
32298;BME280;18782;48.984;8.548;2022-12-07T13:28:00;99972.72;;;5.53;79.42
32298;BME280;18782;48.984;8.548;2022-12-07T13:30:29;99978.25;;;5.62;79.78
32298;BME280;18782;48.984;8.548;2022-12-07T13:32:59;99972.09;;;5.58;79.91
32298;BME280;18782;48.984;8.548;2022-12-07T13:35:31;99976.47;;;5.41;80.13
32298;BME280;18782;48.984;8.548;2022-12-07T13:38:02;99962.63;;;5.36;80.28
32298;BME280;18782;48.984;8.548;2022-12-07T13:40:31;99975.09;;;5.30;80.54